createdAt,value
2023-05-07T00:01:06.854Z,61.02
2023-05-07T00:03:34.935Z,61.90
2023-05-07T00:06:02.350Z,62.73
2023-05-07T00:08:30.219Z,61.70
2023-05-07T00:10:58.215Z,61.30
2023-05-07T00:13:25.873Z,61.40
2023-05-07T00:15:53.235Z,61.23
2023-05-07T00:18:23.617Z,61.87
2023-05-07T00:20:51.124Z,62.37
2023-05-07T00:23:18.702Z,61.47
2023-05-07T00:25:46.032Z,61.18
2023-05-07T00:28:13.604Z,61.61
2023-05-07T00:30:41.208Z,61.29
2023-05-07T00:33:08.827Z,62.53
2023-05-07T00:35:36.369Z,61.96
2023-05-07T00:38:03.805Z,62.23
2023-05-07T00:40:31.740Z,61.64
2023-05-07T00:43:01.059Z,61.30
2023-05-07T00:45:29.683Z,61.13
2023-05-07T00:48:00.330Z,62.62
2023-05-07T00:50:29.002Z,61.77
2023-05-07T00:52:56.637Z,61.14
2023-05-07T00:55:24.879Z,61.67
2023-05-07T00:57:52.765Z,60.60
2023-05-07T01:00:20.995Z,61.10
2023-05-07T01:02:48.707Z,61.47
2023-05-07T01:05:20.129Z,61.91
2023-05-07T01:07:49.418Z,62.39
2023-05-07T01:10:17.696Z,62.04
2023-05-07T01:12:48.270Z,62.03
2023-05-07T01:15:16.647Z,62.25
2023-05-07T01:17:44.652Z,62.87
2023-05-07T01:20:13.010Z,62.42
2023-05-07T01:22:41.935Z,62.30
2023-05-07T01:25:09.661Z,61.95
2023-05-07T01:27:38.264Z,61.78
2023-05-07T01:30:06.635Z,61.91
2023-05-07T01:32:43.726Z,62.40
2023-05-07T01:35:14.935Z,61.83
2023-05-07T01:37:42.962Z,62.58
2023-05-07T01:40:11.495Z,62.89
2023-05-07T01:42:40.153Z,62.32
2023-05-07T01:45:08.018Z,63.66
2023-05-07T01:47:38.397Z,63.64
2023-05-07T01:50:09.666Z,63.17
2023-05-07T01:52:41.828Z,62.66
2023-05-07T01:55:09.435Z,63.40
2023-05-07T01:57:37.657Z,62.77
2023-05-07T02:00:06.273Z,64.13
2023-05-07T02:02:34.565Z,62.64
2023-05-07T02:05:02.633Z,63.27
2023-05-07T02:07:30.365Z,63.49
2023-05-07T02:09:57.794Z,61.67
2023-05-07T02:12:25.200Z,61.92
2023-05-07T02:14:52.666Z,61.39
2023-05-07T02:17:20.051Z,62.06
2023-05-07T02:19:47.908Z,61.36
2023-05-07T02:22:15.272Z,61.41
2023-05-07T02:24:42.675Z,62.24
2023-05-07T02:27:10.036Z,62.00
2023-05-07T02:29:37.447Z,61.41
2023-05-07T02:32:05.080Z,62.89
2023-05-07T02:34:32.696Z,61.98
2023-05-07T02:37:00.073Z,60.62
2023-05-07T02:39:27.501Z,60.63
2023-05-07T02:41:54.895Z,59.66
2023-05-07T02:44:22.273Z,60.14
2023-05-07T02:46:49.648Z,61.06
2023-05-07T02:49:17.030Z,61.02
2023-05-07T02:51:44.409Z,59.75
2023-05-07T02:54:11.719Z,60.78
2023-05-07T02:56:39.050Z,60.67
2023-05-07T02:59:06.420Z,59.80
2023-05-07T03:01:35.916Z,60.69
2023-05-07T03:04:03.454Z,61.88
2023-05-07T03:06:31.404Z,60.96
2023-05-07T03:08:58.758Z,61.35
2023-05-07T03:11:26.478Z,61.29
2023-05-07T03:13:53.859Z,60.52
2023-05-07T03:16:21.359Z,60.50
2023-05-07T03:18:48.793Z,59.47
2023-05-07T03:21:16.642Z,60.72
2023-05-07T03:23:44.045Z,59.73
2023-05-07T03:26:11.517Z,60.82
2023-05-07T03:28:39.047Z,59.22
2023-05-07T03:31:06.807Z,59.75
2023-05-07T03:33:35.708Z,60.45
2023-05-07T03:36:03.196Z,59.46
2023-05-07T03:38:31.158Z,59.58
2023-05-07T03:40:58.520Z,58.12
2023-05-07T03:43:25.891Z,58.12
2023-05-07T03:45:53.210Z,58.44
2023-05-07T03:48:20.900Z,57.98
2023-05-07T03:50:48.883Z,58.83
2023-05-07T03:53:16.583Z,58.51
2023-05-07T03:55:43.895Z,58.91
2023-05-07T04:02:29.628Z,59.26
2023-05-07T04:04:57.648Z,57.26
2023-05-07T04:07:24.971Z,58.33
2023-05-07T04:09:52.393Z,57.53
2023-05-07T04:12:19.793Z,57.65
2023-05-07T04:14:47.267Z,57.44
2023-05-07T04:17:14.653Z,57.25
2023-05-07T04:19:46.328Z,56.42
2023-05-07T04:22:14.154Z,56.88
2023-05-07T04:24:41.483Z,56.31
2023-05-07T04:27:08.937Z,55.62
2023-05-07T04:29:36.389Z,55.91
2023-05-07T04:32:03.813Z,54.98
2023-05-07T04:34:31.534Z,54.42
2023-05-07T04:37:00.510Z,54.95
2023-05-07T04:39:27.965Z,55.67
2023-05-07T04:41:55.727Z,54.24
2023-05-07T04:47:11.007Z,56.65
2023-05-07T04:49:39.323Z,54.31
2023-05-07T04:52:06.672Z,54.52
2023-05-07T04:54:34.034Z,53.46
2023-05-07T04:57:01.426Z,53.55
2023-05-07T04:59:28.915Z,52.86
2023-05-07T05:01:57.317Z,53.16
2023-05-07T05:04:25.217Z,52.49
2023-05-07T05:06:52.677Z,54.75
2023-05-07T05:09:20.240Z,53.21
2023-05-07T05:11:48.042Z,53.50
2023-05-07T05:14:15.532Z,53.30
2023-05-07T05:16:43.117Z,52.57
2023-05-07T05:19:10.519Z,52.39
2023-05-07T05:21:38.032Z,52.15
2023-05-07T05:24:05.754Z,52.52
2023-05-07T05:26:33.167Z,52.32
2023-05-07T05:29:00.615Z,51.75
2023-05-07T05:31:28.178Z,52.04
2023-05-07T05:33:55.515Z,51.81
2023-05-07T05:36:23.393Z,52.25
2023-05-07T05:38:50.972Z,53.22
2023-05-07T05:41:18.411Z,52.26
2023-05-07T05:43:45.953Z,52.65
2023-05-07T05:46:13.396Z,51.98
2023-05-07T05:48:41.030Z,50.00
2023-05-07T05:51:08.497Z,50.09
2023-05-07T05:53:36.391Z,49.65
2023-05-07T05:56:03.940Z,50.81
2023-05-07T05:58:32.309Z,49.72
2023-05-07T06:00:59.828Z,49.35
2023-05-07T06:03:27.287Z,49.58
2023-05-07T06:05:54.657Z,50.28
2023-05-07T06:08:22.355Z,49.40
2023-05-07T06:10:50.021Z,49.33
2023-05-07T06:13:17.645Z,48.95
2023-05-07T06:15:45.205Z,48.58
2023-05-07T06:18:12.728Z,48.32
2023-05-07T06:20:41.002Z,48.46
2023-05-07T06:23:08.501Z,48.37
2023-05-07T06:25:36.063Z,47.91
2023-05-07T06:28:03.472Z,48.06
2023-05-07T06:30:31.070Z,47.56
2023-05-07T06:32:58.927Z,46.22
2023-05-07T06:35:26.353Z,46.53
2023-05-07T06:37:53.979Z,46.60
2023-05-07T06:40:21.414Z,46.82
2023-05-07T06:42:48.722Z,45.71
2023-05-07T06:45:16.822Z,45.50
2023-05-07T06:47:44.421Z,45.70
2023-05-07T06:50:12.493Z,44.97
2023-05-07T06:52:40.326Z,46.93
2023-05-07T06:55:08.419Z,45.29
2023-05-07T06:57:35.880Z,46.36
2023-05-07T07:00:03.663Z,44.14
2023-05-07T07:02:31.662Z,44.69
2023-05-07T07:04:59.128Z,43.76
2023-05-07T07:07:26.606Z,44.22
2023-05-07T07:09:54.027Z,43.57
2023-05-07T07:12:31.490Z,43.32
2023-05-07T07:14:58.825Z,42.93
2023-05-07T07:17:26.183Z,43.21
2023-05-07T07:19:53.567Z,43.52
2023-05-07T07:22:21.071Z,43.09
2023-05-07T07:24:48.581Z,43.40
2023-05-07T07:27:15.910Z,43.10
2023-05-07T07:29:43.484Z,42.37
2023-05-07T07:32:11.118Z,42.59
2023-05-07T07:34:38.893Z,44.97
2023-05-07T07:37:07.288Z,42.33
2023-05-07T07:39:35.137Z,42.25
2023-05-07T07:42:02.586Z,41.79
2023-05-07T07:44:30.059Z,43.33
2023-05-07T07:46:57.492Z,40.99
2023-05-07T07:49:24.850Z,39.73
2023-05-07T07:51:52.297Z,41.79
2023-05-07T07:54:19.905Z,40.74
2023-05-07T07:56:47.306Z,40.83
2023-05-07T07:59:18.733Z,40.06
2023-05-07T08:01:46.505Z,40.70
2023-05-07T08:04:13.993Z,41.58
2023-05-07T08:06:41.608Z,39.41
2023-05-07T08:09:09.304Z,39.34
2023-05-07T08:11:37.224Z,39.36
2023-05-07T08:14:04.646Z,42.40
2023-05-07T08:16:32.306Z,40.67
2023-05-07T08:18:59.744Z,39.75
2023-05-07T08:21:27.290Z,39.54
2023-05-07T08:23:54.699Z,39.22
2023-05-07T08:26:22.066Z,39.19
2023-05-07T08:28:49.484Z,38.52
2023-05-07T08:31:17.280Z,37.75
2023-05-07T08:33:45.335Z,37.58
2023-05-07T08:36:13.316Z,37.85
2023-05-07T08:38:43.841Z,37.36
2023-05-07T08:41:12.269Z,38.01
2023-05-07T08:43:42.333Z,40.26
2023-05-07T08:46:12.514Z,37.43
2023-05-07T08:48:40.385Z,39.04
2023-05-07T08:51:07.872Z,38.02
2023-05-07T08:53:36.311Z,36.72
2023-05-07T08:56:04.283Z,38.62
2023-05-07T08:58:31.955Z,37.51
2023-05-07T09:01:03.219Z,38.35
2023-05-07T09:03:32.093Z,37.73
2023-05-07T09:05:59.450Z,36.61
2023-05-07T09:08:30.515Z,35.97
2023-05-07T09:10:58.378Z,36.22
2023-05-07T09:13:26.228Z,37.59
2023-05-07T09:15:53.856Z,35.14
2023-05-07T09:18:21.614Z,37.05
2023-05-07T09:20:49.281Z,35.68
2023-05-07T09:23:16.745Z,35.90
2023-05-07T09:25:44.178Z,34.57
2023-05-07T09:28:11.960Z,35.41
2023-05-07T09:30:39.397Z,33.53
2023-05-07T09:33:06.945Z,34.57
2023-05-07T09:35:34.457Z,34.35
2023-05-07T09:38:04.369Z,34.68
2023-05-07T09:40:32.547Z,32.57
2023-05-07T09:43:14.329Z,33.44
2023-05-07T09:45:42.322Z,33.35
2023-05-07T09:48:11.312Z,33.38
2023-05-07T09:50:51.016Z,33.20
2023-05-07T09:53:18.896Z,32.95
2023-05-07T09:55:47.168Z,31.84
2023-05-07T09:58:17.569Z,32.48
2023-05-07T10:00:46.700Z,31.12
2023-05-07T10:03:15.497Z,32.39
2023-05-07T10:05:45.581Z,32.55
2023-05-07T10:08:13.459Z,31.76
2023-05-07T10:10:41.852Z,31.34
2023-05-07T10:13:12.018Z,30.62
2023-05-07T10:15:39.515Z,30.00
2023-05-07T10:18:07.650Z,30.27
2023-05-07T10:20:37.930Z,31.50
2023-05-07T10:23:07.072Z,30.76
2023-05-07T10:25:35.647Z,30.47
2023-05-07T10:28:08.644Z,29.82
2023-05-07T10:30:42.168Z,30.88
2023-05-07T10:33:13.063Z,29.57
2023-05-07T10:35:43.884Z,31.72
2023-05-07T10:38:12.057Z,31.62
2023-05-07T10:40:39.829Z,29.63
2023-05-07T10:43:10.586Z,30.93
2023-05-07T10:45:39.817Z,28.51
2023-05-07T10:50:49.838Z,29.16
2023-05-07T10:53:20.259Z,29.40
2023-05-07T10:55:50.075Z,30.06
2023-05-07T11:01:00.902Z,28.58
2023-05-07T11:03:29.513Z,28.88
2023-05-07T11:06:16.586Z,29.63
2023-05-07T11:08:53.098Z,31.09
2023-05-07T11:11:23.337Z,30.09
2023-05-07T11:13:51.454Z,29.78
2023-05-07T11:16:26.083Z,28.67
2023-05-07T11:18:55.841Z,29.34
2023-05-07T11:21:39.509Z,30.39
2023-05-07T11:24:12.928Z,30.39
2023-05-07T11:26:50.980Z,29.95
2023-05-07T11:29:22.518Z,29.90
2023-05-07T11:31:54.423Z,29.76
2023-05-07T11:34:27.112Z,29.18
2023-05-07T11:36:54.773Z,30.32
2023-05-07T11:39:37.061Z,29.10
2023-05-07T11:42:04.716Z,28.91
2023-05-07T11:44:47.713Z,28.31
2023-05-07T11:47:19.711Z,28.12
2023-05-07T11:49:51.929Z,29.02
2023-05-07T11:52:21.849Z,27.10
2023-05-07T11:54:54.644Z,27.22
2023-05-07T11:57:23.335Z,27.60
2023-05-07T12:00:00.745Z,26.73
2023-05-07T12:02:29.443Z,26.63
2023-05-07T12:04:56.933Z,26.94
2023-05-07T12:07:25.946Z,26.01
2023-05-07T12:09:53.414Z,26.60
2023-05-07T12:12:20.816Z,26.20
2023-05-07T12:14:48.224Z,26.09
2023-05-07T12:17:16.441Z,27.69
2023-05-07T12:19:45.937Z,25.76
2023-05-07T12:22:13.944Z,24.47
2023-05-07T12:24:49.168Z,25.24
2023-05-07T12:27:18.782Z,25.35
2023-05-07T12:29:51.374Z,24.74
2023-05-07T12:32:20.535Z,25.28
2023-05-07T12:34:51.022Z,24.63
2023-05-07T12:37:24.847Z,24.69
2023-05-07T12:40:09.885Z,25.89
2023-05-07T12:42:39.421Z,23.68
2023-05-07T12:45:14.727Z,23.99
2023-05-07T12:47:47.020Z,25.34
2023-05-07T12:50:15.751Z,23.28
2023-05-07T12:52:45.945Z,25.36
2023-05-07T12:55:16.580Z,23.93
2023-05-07T12:57:48.760Z,24.35
2023-05-07T13:00:16.824Z,24.57
2023-05-07T13:02:46.718Z,23.37
2023-05-07T13:05:14.468Z,23.98
2023-05-07T13:07:54.069Z,23.84
2023-05-07T13:10:21.471Z,22.69
2023-05-07T13:12:49.101Z,22.40
2023-05-07T13:15:17.031Z,23.85
2023-05-07T13:17:44.960Z,23.01
2023-05-07T13:20:13.929Z,22.40
2023-05-07T13:22:42.321Z,24.03
2023-05-07T13:25:10.261Z,23.25
2023-05-07T13:27:38.378Z,22.30
2023-05-07T13:30:06.734Z,22.90
2023-05-07T13:32:34.956Z,22.89
2023-05-07T13:35:02.788Z,21.99
2023-05-07T13:37:30.418Z,23.56
2023-05-07T13:39:57.864Z,22.82
2023-05-07T13:42:25.227Z,22.41
2023-05-07T13:44:52.619Z,22.46
2023-05-07T13:47:22.526Z,21.06
2023-05-07T13:49:50.771Z,22.13
2023-05-07T13:52:18.284Z,22.55
2023-05-07T13:54:46.118Z,24.53
2023-05-07T13:57:13.502Z,23.64
2023-05-07T13:59:41.774Z,24.01
2023-05-07T14:02:10.230Z,24.17
2023-05-07T14:04:38.765Z,24.79
2023-05-07T14:07:06.376Z,25.30
2023-05-07T14:09:34.120Z,24.38
2023-05-07T14:12:02.524Z,26.00
2023-05-07T14:14:30.227Z,25.98
2023-05-07T14:16:58.483Z,25.77
2023-05-07T14:19:26.249Z,25.87
2023-05-07T14:21:53.658Z,26.52
2023-05-07T14:24:34.481Z,26.93
2023-05-07T14:27:04.734Z,27.99
2023-05-07T14:29:32.197Z,27.76
2023-05-07T14:31:59.503Z,27.93
2023-05-07T14:34:27.390Z,28.47
2023-05-07T14:36:58.773Z,27.76
2023-05-07T14:39:29.298Z,28.30
2023-05-07T14:41:58.316Z,27.75
2023-05-07T14:44:25.874Z,28.33
2023-05-07T14:46:53.718Z,29.60
2023-05-07T14:49:21.494Z,29.91
2023-05-07T14:51:49.040Z,28.88
2023-05-07T14:54:16.683Z,28.82
2023-05-07T14:56:44.224Z,29.13
2023-05-07T14:59:11.729Z,28.76
2023-05-07T15:01:41.469Z,29.42
2023-05-07T15:04:08.974Z,29.22
2023-05-07T15:06:36.617Z,29.17
2023-05-07T15:09:04.220Z,29.42
2023-05-07T15:11:31.705Z,29.77
2023-05-07T15:13:59.455Z,28.85
2023-05-07T15:16:26.925Z,28.94
2023-05-07T15:18:54.683Z,30.24
2023-05-07T15:21:22.172Z,29.51
2023-05-07T15:23:49.767Z,29.45
2023-05-07T15:26:17.209Z,30.62
2023-05-07T15:28:45.557Z,30.08
2023-05-07T15:31:13.192Z,29.65
2023-05-07T15:33:41.908Z,29.58
2023-05-07T15:36:09.497Z,30.86
2023-05-07T15:38:36.885Z,30.86
2023-05-07T15:41:04.603Z,31.37
2023-05-07T15:43:31.951Z,30.57
2023-05-07T15:46:01.199Z,29.66
2023-05-07T15:48:29.596Z,31.27
2023-05-07T15:50:56.997Z,30.24
2023-05-07T15:53:24.358Z,30.81
2023-05-07T15:55:51.933Z,30.04
2023-05-07T15:58:21.258Z,29.17
2023-05-07T16:00:48.836Z,29.65
2023-05-07T16:03:16.840Z,29.84
2023-05-07T16:05:44.349Z,30.36
2023-05-07T16:08:11.686Z,30.61
2023-05-07T16:10:39.052Z,30.21
2023-05-07T16:13:07.691Z,31.12
2023-05-07T16:15:36.320Z,30.64
2023-05-07T16:18:04.646Z,30.50
2023-05-07T16:20:32.287Z,30.12
2023-05-07T16:22:59.717Z,30.76
2023-05-07T16:25:27.195Z,30.58
2023-05-07T16:27:55.482Z,31.26
2023-05-07T16:30:22.908Z,30.52
2023-05-07T16:32:50.491Z,30.16
2023-05-07T16:35:18.029Z,30.67
2023-05-07T16:37:45.748Z,30.64
2023-05-07T16:40:13.316Z,30.88
2023-05-07T16:42:41.104Z,31.17
2023-05-07T16:45:08.986Z,30.96
2023-05-07T16:47:36.849Z,31.64
2023-05-07T16:50:05.920Z,31.64
2023-05-07T16:52:33.738Z,31.80
2023-05-07T16:55:01.681Z,32.00
2023-05-07T16:57:32.703Z,31.94
2023-05-07T17:00:00.651Z,31.58
2023-05-07T17:02:28.707Z,32.26
2023-05-07T17:04:56.205Z,31.96
2023-05-07T17:07:27.305Z,31.74
2023-05-07T17:09:54.713Z,32.03
2023-05-07T17:12:22.734Z,31.98
2023-05-07T17:14:50.194Z,32.11
2023-05-07T17:17:17.956Z,32.22
2023-05-07T17:19:45.414Z,33.01
2023-05-07T17:22:13.370Z,32.28
2023-05-07T17:24:40.852Z,33.11
2023-05-07T17:27:08.235Z,32.70
2023-05-07T17:29:36.082Z,33.59
2023-05-07T17:32:04.242Z,33.94
2023-05-07T17:34:33.145Z,33.83
2023-05-07T17:37:00.672Z,34.20
2023-05-07T17:39:28.123Z,34.53
2023-05-07T17:41:55.770Z,34.65
2023-05-07T17:44:23.242Z,34.75
2023-05-07T17:46:50.588Z,35.10
2023-05-07T17:49:18.196Z,35.43
2023-05-07T17:51:54.106Z,34.83
2023-05-07T17:54:26.182Z,35.45
2023-05-07T17:56:53.779Z,35.76
2023-05-07T17:59:21.259Z,35.36
2023-05-07T18:01:48.742Z,37.27
2023-05-07T18:04:16.287Z,35.93
2023-05-07T18:06:43.744Z,35.28
2023-05-07T18:09:11.450Z,35.63
2023-05-07T18:11:39.509Z,36.53
2023-05-07T18:14:06.980Z,36.62
2023-05-07T18:16:34.867Z,36.17
2023-05-07T18:19:02.577Z,36.25
2023-05-07T18:21:30.024Z,35.93
2023-05-07T18:23:57.655Z,36.42
2023-05-07T18:26:25.114Z,36.39
2023-05-07T18:28:52.501Z,36.71
2023-05-07T18:31:20.842Z,36.36
2023-05-07T18:33:51.676Z,36.78
2023-05-07T18:36:19.032Z,36.70
2023-05-07T18:38:46.443Z,36.96
2023-05-07T18:41:13.978Z,37.22
2023-05-07T18:43:41.390Z,37.11
2023-05-07T18:46:09.317Z,37.18
2023-05-07T18:48:37.328Z,37.88
2023-05-07T18:51:04.829Z,37.81
2023-05-07T18:53:32.279Z,37.99
2023-05-07T18:56:00.896Z,38.47
2023-05-07T18:58:28.409Z,38.47
2023-05-07T19:00:56.289Z,37.90
2023-05-07T19:03:23.759Z,39.35
2023-05-07T19:05:51.275Z,38.36
2023-05-07T19:08:18.993Z,38.25
2023-05-07T19:10:48.588Z,37.97
2023-05-07T19:13:16.132Z,38.26
2023-05-07T19:15:43.765Z,37.92
2023-05-07T19:18:11.471Z,38.04
2023-05-07T19:20:38.779Z,38.16
2023-05-07T19:23:09.485Z,37.65
2023-05-07T19:25:37.183Z,37.68
2023-05-07T19:28:04.550Z,39.02
2023-05-07T19:30:32.610Z,38.34
2023-05-07T19:33:01.508Z,38.68
2023-05-07T19:35:29.438Z,38.92
2023-05-07T19:37:56.917Z,38.68
2023-05-07T19:40:24.286Z,39.32
2023-05-07T19:42:51.657Z,39.77
2023-05-07T19:45:19.179Z,38.54
2023-05-07T19:47:48.965Z,38.79
2023-05-07T19:50:16.581Z,38.78
2023-05-07T19:52:44.543Z,39.38
2023-05-07T19:55:12.898Z,38.93
2023-05-07T19:57:40.510Z,39.85
2023-05-07T20:00:08.686Z,39.91
2023-05-07T20:02:37.245Z,39.36
2023-05-07T20:05:05.193Z,39.88
2023-05-07T20:07:32.912Z,39.34
2023-05-07T20:10:00.246Z,40.00
2023-05-07T20:12:27.623Z,40.49
2023-05-07T20:14:55.036Z,40.10
2023-05-07T20:17:22.437Z,39.64
2023-05-07T20:19:50.026Z,40.42
2023-05-07T20:22:17.398Z,41.53
2023-05-07T20:24:44.973Z,41.13
2023-05-07T20:27:12.293Z,41.44
2023-05-07T20:29:40.044Z,40.61
2023-05-07T20:32:07.940Z,40.39
2023-05-07T20:34:35.360Z,41.13
2023-05-07T20:37:03.042Z,40.92
2023-05-07T20:39:30.468Z,41.28
2023-05-07T20:41:58.790Z,40.41
2023-05-07T20:44:26.146Z,41.25
2023-05-07T20:46:53.509Z,41.23
2023-05-07T20:49:23.177Z,40.76
2023-05-07T20:51:50.665Z,40.96
2023-05-07T20:54:18.689Z,40.66
2023-05-07T20:56:46.299Z,41.35
2023-05-07T20:59:14.112Z,41.30
2023-05-07T21:01:42.820Z,41.00
2023-05-07T21:04:10.189Z,41.21
2023-05-07T21:06:37.661Z,41.26
2023-05-07T21:09:04.985Z,41.68
2023-05-07T21:11:32.815Z,41.49
2023-05-07T21:14:00.187Z,41.23
2023-05-07T21:16:27.549Z,41.99
2023-05-07T21:18:55.207Z,41.79
2023-05-07T21:21:22.591Z,42.06
2023-05-07T21:23:50.003Z,42.31
2023-05-07T21:26:21.836Z,43.13
2023-05-07T21:28:49.648Z,42.64
2023-05-07T21:31:17.067Z,42.44
2023-05-07T21:33:44.533Z,42.07
2023-05-07T21:36:12.003Z,42.30
2023-05-07T21:38:40.204Z,42.03
2023-05-07T21:41:07.701Z,42.48
2023-05-07T21:43:35.574Z,41.89
2023-05-07T21:46:09.177Z,41.83
2023-05-07T21:48:36.737Z,42.16
2023-05-07T21:51:06.411Z,42.00
2023-05-07T21:53:34.954Z,41.98
2023-05-07T21:56:03.548Z,42.03
2023-05-07T21:58:31.429Z,42.77
2023-05-07T22:00:59.924Z,42.09
2023-05-07T22:03:27.693Z,41.54
2023-05-07T22:05:55.813Z,41.77
2023-05-07T22:08:23.573Z,41.68
2023-05-07T22:10:51.162Z,41.81
2023-05-07T22:13:18.736Z,42.23
2023-05-07T22:15:56.702Z,41.89
2023-05-07T22:18:26.149Z,42.27
2023-05-07T22:20:53.790Z,42.22
2023-05-07T22:23:21.841Z,42.24
2023-05-07T22:25:49.245Z,42.41
2023-05-07T22:28:16.859Z,42.78
2023-05-07T22:30:44.461Z,42.56
2023-05-07T22:33:12.096Z,42.21
2023-05-07T22:35:39.694Z,42.15
2023-05-07T22:38:07.080Z,42.67
2023-05-07T22:40:35.200Z,42.85
2023-05-07T22:43:02.539Z,42.26
2023-05-07T22:45:29.983Z,42.59
2023-05-07T22:47:57.398Z,42.51
2023-05-07T22:50:24.827Z,42.97
2023-05-07T22:52:52.202Z,42.83
2023-05-07T22:55:19.593Z,42.90
2023-05-07T22:57:47.022Z,43.53
2023-05-07T23:00:15.025Z,43.48
2023-05-07T23:02:43.147Z,43.49
2023-05-07T23:05:10.630Z,43.93
2023-05-07T23:07:38.218Z,43.46
2023-05-07T23:10:07.521Z,43.47
2023-05-07T23:12:35.199Z,43.32
2023-05-07T23:15:02.552Z,43.64
2023-05-07T23:17:30.195Z,44.00
2023-05-07T23:19:57.754Z,43.26
2023-05-07T23:22:25.178Z,44.08
2023-05-07T23:24:52.662Z,43.53
2023-05-07T23:27:19.979Z,43.56
2023-05-07T23:29:47.306Z,43.29
2023-05-07T23:32:14.756Z,44.13
2023-05-07T23:34:42.196Z,43.25
2023-05-07T23:37:10.519Z,43.28
2023-05-07T23:39:37.885Z,44.04
2023-05-07T23:42:06.013Z,44.77
2023-05-07T23:44:34.286Z,43.11
2023-05-07T23:47:01.744Z,43.86
2023-05-07T23:49:29.221Z,43.61
2023-05-07T23:51:56.564Z,43.02
2023-05-07T23:54:24.413Z,44.17
2023-05-07T23:56:51.837Z,43.38
2023-05-07T23:59:19.290Z,43.58
